Time;durP1;ratioP1;P1;durP2;ratioP2;P2;SDS_P1;SDS_P2;PMS_P1;PMS_P2;Temp;Humidity;BMP_temperature;BMP_pressure;BME280_temperature;BME280_humidity;BME280_pressure;Samples;Min_cycle;Max_cycle;Signal;HPM_P1;HPM_P2
2023/01/02 00:09:07;;;;;;;22.42;11.45;;;;;;;24.09;49.27;101541.03;21056311;28;20040;-66
2023/01/02 00:19:08;;;;;;;20.52;11.38;;;;;;;24.21;48.31;101554.69;21060715;28;20120;-61
2023/01/02 00:29:10;;;;;;;22.17;10.27;;;;;;;24.02;47.62;101565.69;21074028;28;20039;-63
2023/01/02 00:39:11;;;;;;;25.83;9.55;;;;;;;24.15;47.58;101602.56;21071965;28;20070;-66
2023/01/02 00:49:12;;;;;;;15.93;9.23;;;;;;;24.12;47.62;101612.34;21066860;28;20453;-67
2023/01/02 00:59:14;;;;;;;14.50;9.13;;;;;;;24.09;47.10;101615.69;21066522;28;20052;-65
2023/01/02 01:09:16;;;;;;;12.50;8.75;;;;;;;24.07;46.83;101620.75;21067325;28;20497;-64
2023/01/02 01:19:18;;;;;;;13.43;8.43;;;;;;;24.05;46.78;101629.44;21058442;28;20048;-64
2023/01/02 01:29:19;;;;;;;16.83;8.20;;;;;;;24.04;47.09;101626.91;21069133;28;20048;-65
2023/01/02 01:39:21;;;;;;;18.20;7.82;;;;;;;24.02;46.92;101624.41;21066674;28;20427;-63
2023/01/02 01:49:27;;;;;;;15.68;8.05;;;;;;;23.98;47.17;101628.06;21067220;28;20032;-65
2023/01/02 01:59:29;;;;;;;16.83;7.70;;;;;;;23.96;47.37;101624.69;21063841;28;20052;-66
2023/01/02 02:09:43;;;;;;;15.98;7.57;;;;;;;23.90;47.34;101621.09;21061510;28;20040;-67
2023/01/02 02:19:50;;;;;;;15.85;8.13;;;;;;;23.92;47.70;101623.63;21059590;28;20048;-72
2023/01/02 02:30:07;;;;;;;16.40;7.60;;;;;;;23.92;47.73;101634.81;21061100;28;20036;-70
2023/01/02 02:40:34;;;;;;;14.73;7.72;;;;;;;23.93;48.35;101642.06;21048857;28;20040;-69
2023/01/02 02:50:43;;;;;;;12.35;7.10;;;;;;;23.90;48.55;101635.06;21057038;28;20032;-70
2023/01/02 03:00:44;;;;;;;13.23;7.32;;;;;;;23.94;48.45;101635.34;21065679;28;20070;-75
2023/01/02 03:10:51;;;;;;;14.98;7.18;;;;;;;23.93;48.92;101630.88;21082565;28;20362;-69
2023/01/02 03:21:09;;;;;;;14.48;6.45;;;;;;;23.75;48.78;101602.44;21067111;28;20453;-70
2023/01/02 03:31:16;;;;;;;10.93;6.00;;;;;;;23.93;49.19;101625.28;21074908;28;20036;-69
2023/01/02 03:41:22;;;;;;;15.02;6.10;;;;;;;23.91;48.89;101627.53;21080371;28;20039;-68
2023/01/02 03:51:24;;;;;;;13.75;6.00;;;;;;;23.90;48.69;101623.06;21067095;28;20063;-69
2023/01/02 04:01:36;;;;;;;12.75;6.20;;;;;;;23.81;48.47;101632.03;21061215;28;20028;-68
2023/01/02 04:11:41;;;;;;;98.38;73.07;;;;;;;23.79;48.54;101606.31;21061244;28;20487;-67
2023/01/02 04:21:45;;;;;;;131.52;92.80;;;;;;;23.86;48.58;101621.94;21058952;28;20084;-66
2023/01/02 04:32:13;;;;;;;153.68;106.75;;;;;;;23.84;48.36;101623.06;21056702;28;20140;-68
2023/01/02 04:42:17;;;;;;;142.60;100.03;;;;;;;23.75;48.50;101622.00;21080272;28;20100;-65
2023/01/02 04:52:19;;;;;;;141.73;96.97;;;;;;;23.83;48.81;101640.97;21078156;28;20103;-68
2023/01/02 05:02:20;;;;;;;128.90;88.32;;;;;;;23.74;48.64;101628.69;21081131;28;20044;-69
2023/01/02 05:12:21;;;;;;;113.75;79.60;;;;;;;23.70;48.36;101616.41;21081295;28;20066;-69
2023/01/02 05:32:42;;;;;;;100.85;70.65;;;;;;;23.75;47.37;101649.94;21075499;28;20044;-67
2023/01/02 05:42:44;;;;;;;95.05;67.15;;;;;;;23.71;46.76;101651.63;21077341;28;20036;-67
2023/01/02 05:52:48;;;;;;;96.43;65.18;;;;;;;23.59;46.59;101625.91;21072077;28;20024;-63
2023/01/02 06:02:49;;;;;;;103.70;62.80;;;;;;;23.67;46.60;101639.31;21062300;28;20062;-64
2023/01/02 06:12:51;;;;;;;92.20;57.90;;;;;;;23.65;46.31;101635.16;21050658;28;20044;-63
2023/01/02 06:22:52;;;;;;;87.85;56.08;;;;;;;23.61;46.10;101639.59;21013870;28;20051;-63
2023/01/02 06:32:55;;;;;;;88.10;52.40;;;;;;;23.59;45.91;101653.84;21067808;28;20045;-63
2023/01/02 06:43:03;;;;;;;74.13;49.95;;;;;;;23.56;45.50;101682.34;21082046;28;20040;-63
2023/01/02 06:53:07;;;;;;;72.67;46.20;;;;;;;23.54;45.36;101687.38;21079949;28;20052;-63
2023/01/02 07:03:08;;;;;;;63.00;42.92;;;;;;;23.41;45.45;101691.56;21086740;28;20044;-63
2023/01/02 07:13:09;;;;;;;61.28;40.53;;;;;;;23.50;45.05;101711.41;21085307;28;20048;-63
2023/01/02 07:23:11;;;;;;;56.33;36.72;;;;;;;23.46;44.81;101724.25;21086093;28;20039;-63
2023/01/02 07:33:12;;;;;;;54.97;36.55;;;;;;;23.35;44.70;101737.38;21084587;28;20044;-64
2023/01/02 07:43:13;;;;;;;47.72;33.42;;;;;;;23.40;44.29;101726.19;21020032;28;20036;-63
2023/01/02 07:53:15;;;;;;;46.92;30.40;;;;;;;23.40;44.30;101754.13;21066129;28;20040;-63
2023/01/02 08:03:19;;;;;;;44.42;29.48;;;;;;;23.39;44.08;101748.84;21084997;28;20105;-63
2023/01/02 08:13:20;;;;;;;38.55;26.45;;;;;;;23.36;43.97;101766.13;21086358;28;20048;-63
2023/01/02 08:23:22;;;;;;;35.47;24.85;;;;;;;23.34;43.40;101753.28;21079012;28;20096;-63
2023/01/02 08:33:26;;;;;;;34.00;22.17;;;;;;;23.27;43.23;101729.53;21078259;28;20085;-63
2023/01/02 08:43:27;;;;;;;27.27;18.77;;;;;;;23.24;43.85;101744.91;21080368;28;20097;-63
2023/01/02 08:53:29;;;;;;;25.77;17.10;;;;;;;23.24;43.69;101763.63;21082443;28;20043;-62
2023/01/02 09:03:30;;;;;;;23.80;15.23;;;;;;;23.22;43.17;101790.97;21080829;28;20036;-63
2023/01/02 09:13:31;;;;;;;20.10;13.95;;;;;;;23.00;43.22;101766.06;21075555;28;20475;-63
2023/01/02 09:23:33;;;;;;;19.70;14.15;;;;;;;23.20;43.32;101799.63;21080576;28;20036;-63
2023/01/02 09:33:34;;;;;;;18.77;12.93;;;;;;;23.16;42.88;101780.91;21079233;28;20121;-63
2023/01/02 09:43:39;;;;;;;16.42;11.75;;;;;;;23.16;42.82;101794.88;21078162;28;20032;-63
2023/01/02 09:53:40;;;;;;;14.60;10.88;;;;;;;23.15;42.47;101815.53;21078051;28;20044;-63
2023/01/02 10:04:04;;;;;;;14.88;10.27;;;;;;;23.13;42.47;101826.97;21077339;28;20032;-63
2023/01/02 10:14:22;;;;;;;12.70;9.60;;;;;;;23.12;42.55;101824.47;21074724;28;20101;-63
2023/01/02 10:24:49;;;;;;;12.67;9.57;;;;;;;23.05;42.10;101821.94;21074113;28;20120;-63
2023/01/02 10:35:05;;;;;;;11.40;8.77;;;;;;;23.04;42.33;101848.16;21075340;28;20078;-62
2023/01/02 10:45:14;;;;;;;9.18;7.78;;;;;;;23.05;42.25;101833.09;21069877;28;20043;-62
2023/01/02 10:55:40;;;;;;;9.30;6.75;;;;;;;22.99;42.04;101868.50;21056628;28;20044;-62
2023/01/02 11:05:51;;;;;;;11.07;7.68;;;;;;;22.99;41.83;101848.97;21059806;28;20561;-63
2023/01/02 11:15:59;;;;;;;8.60;6.78;;;;;;;22.76;41.95;101813.13;21071657;28;20105;-63
2023/01/02 11:26:02;;;;;;;9.65;6.40;;;;;;;22.98;41.98;101877.16;21080747;28;20048;-62
2023/01/02 11:36:14;;;;;;;7.50;5.93;;;;;;;22.95;41.47;101886.06;21085278;28;20073;-62
2023/01/02 11:46:25;;;;;;;9.50;6.05;;;;;;;22.92;41.64;101895.84;21084041;28;20077;-62
2023/01/02 11:56:36;;;;;;;8.13;5.65;;;;;;;22.91;41.66;101893.31;21087378;28;20040;-62
2023/01/02 12:06:37;;;;;;;9.18;4.97;;;;;;;22.88;41.42;101911.44;21086204;28;20048;-63
2023/01/02 12:16:41;;;;;;;7.57;4.85;;;;;;;22.87;41.33;101922.88;21085542;28;20093;-62
2023/01/02 12:27:07;;;;;;;5.22;4.57;;;;;;;22.86;41.47;101932.31;21056320;28;20040;-62
2023/01/02 12:37:23;;;;;;;5.65;4.50;;;;;;;22.80;41.41;101942.63;21078363;28;20036;-63
2023/01/02 12:47:59;;;;;;;6.43;4.85;;;;;;;22.73;41.12;101942.03;21081905;28;20040;-62
2023/01/02 12:58:32;;;;;;;7.03;4.72;;;;;;;22.75;41.07;101951.81;21068623;28;20395;-62
2023/01/02 13:09:21;;;;;;;4.97;4.05;;;;;;;22.64;41.29;101944.50;21011340;28;20036;-63
2023/01/02 13:19:42;;;;;;;6.18;4.55;;;;;;;22.74;41.35;101961.28;21038300;28;20037;-63
2023/01/02 13:29:46;;;;;;;5.60;4.53;;;;;;;22.72;41.01;101969.06;21076876;28;20318;-63
2023/01/02 13:39:52;;;;;;;5.25;4.32;;;;;;;22.68;41.27;101973.53;21075872;28;20552;-62
2023/01/02 13:50:20;;;;;;;4.70;4.15;;;;;;;22.62;40.62;101974.59;21061307;28;20036;-62
2023/01/02 14:00:36;;;;;;;5.32;3.78;;;;;;;22.64;41.07;102007.81;21061675;28;20463;-62
2023/01/02 14:10:42;;;;;;;5.15;4.10;;;;;;;22.65;40.79;102013.13;21077252;28;20048;-63
2023/01/02 14:20:44;;;;;;;5.15;4.18;;;;;;;22.66;40.89;102009.22;21076440;28;20044;-62
2023/01/02 14:30:48;;;;;;;5.50;4.13;;;;;;;22.67;40.41;102008.09;21073945;28;20548;-62
2023/01/02 14:43:28;;;;;;;4.38;3.72;;;;;;;22.65;40.66;102012.28;21073163;28;20044;-62
2023/01/02 14:51:41;;;;;;;4.78;3.42;;;;;;;22.55;40.85;102001.88;21075663;28;20043;-63
2023/01/02 15:01:50;;;;;;;6.05;4.15;;;;;;;22.62;40.51;102007.22;21088904;28;20040;-62
2023/01/02 15:22:29;;;;;;;5.05;3.88;;;;;;;22.58;40.73;102007.75;21086574;28;20036;-62
2023/01/02 15:32:32;;;;;;;4.20;3.40;;;;;;;22.59;40.41;102011.41;21088662;28;20482;-62
2023/01/02 15:53:06;;;;;;;3.92;3.40;;;;;;;22.58;40.72;101979.03;21081933;28;20035;-62
2023/01/02 16:03:09;;;;;;;4.53;3.95;;;;;;;22.55;40.05;101962.84;21085865;28;20044;-64
2023/01/02 16:23:49;;;;;;;5.38;3.53;;;;;;;22.25;41.05;101908.50;21087115;28;20483;-75
2023/01/02 16:33:51;;;;;;;5.40;3.63;;;;;;;22.39;41.32;101924.78;21084037;28;20044;-72
2023/01/02 16:43:52;;;;;;;7.85;3.70;;;;;;;22.36;41.44;101925.28;21081984;28;20044;-73
2023/01/02 16:53:54;;;;;;;6.88;4.05;;;;;;;22.35;41.39;101918.03;21063466;28;20043;-69
2023/01/02 17:03:55;;;;;;;6.30;3.40;;;;;;;22.35;41.24;101923.63;21076698;28;20040;-68
2023/01/02 17:14:05;;;;;;;8.63;3.97;;;;;;;22.15;41.12;101888.91;21062509;28;20113;-68
2023/01/02 17:24:07;;;;;;;8.27;3.50;;;;;;;21.80;41.47;101828.09;21070021;28;20043;-69
2023/01/02 17:34:08;;;;;;;5.45;3.45;;;;;;;22.24;41.63;101895.66;21067648;28;20044;-69
2023/01/02 17:44:10;;;;;;;7.75;3.95;;;;;;;22.18;41.65;101862.44;21069291;28;20097;-71
2023/01/02 17:54:14;;;;;;;7.53;3.67;;;;;;;22.29;41.94;101892.91;21074246;28;20036;-72
2023/01/02 18:04:16;;;;;;;9.13;4.22;;;;;;;22.29;41.79;101900.44;21077273;28;20036;-76
2023/01/02 18:14:23;;;;;;;12.10;3.92;;;;;;;22.20;41.78;101899.25;21075793;28;20040;-73
2023/01/02 18:24:30;;;;;;;9.05;3.97;;;;;;;22.27;41.66;101917.44;21065737;28;20044;-65
2023/01/02 18:34:34;;;;;;;9.07;3.80;;;;;;;22.25;41.65;101902.91;21094417;28;20040;-63
2023/01/02 18:44:36;;;;;;;13.68;4.20;;;;;;;22.25;42.27;101891.75;21096596;28;20040;-62
2023/01/02 18:54:43;;;;;;;10.73;4.07;;;;;;;22.04;41.95;101873.19;21102241;28;20055;-63
2023/01/02 19:04:45;;;;;;;11.88;3.63;;;;;;;22.22;42.12;101917.41;21098620;28;20881;-62
2023/01/02 19:14:50;;;;;;;13.73;4.05;;;;;;;22.22;41.90;101909.03;21098922;28;20039;-63
2023/01/02 19:24:51;;;;;;;5.93;3.13;;;;;;;22.20;41.72;101886.16;21099596;28;20043;-63
2023/01/02 19:34:56;;;;;;;6.10;3.67;;;;;;;22.10;41.80;101869.31;21101531;28;20497;-63
2023/01/02 19:45:06;;;;;;;8.10;3.67;;;;;;;22.18;41.65;101852.13;21081770;28;20048;-62
2023/01/02 19:55:08;;;;;;;7.00;2.97;;;;;;;22.16;41.96;101859.91;21086433;28;20054;-62
2023/01/02 20:05:10;;;;;;;4.35;2.78;;;;;;;22.13;41.97;101843.75;21076704;28;20120;-64
2023/01/02 20:15:16;;;;;;;9.43;3.20;;;;;;;22.15;41.65;101880.53;21079786;28;20055;-64
2023/01/02 20:25:19;;;;;;;3.60;2.88;;;;;;;21.96;41.59;101810.41;21084923;28;20073;-64
2023/01/02 20:35:21;;;;;;;6.25;3.03;;;;;;;22.14;41.82;101867.72;21084451;28;20055;-63
2023/01/02 20:45:23;;;;;;;5.35;3.33;;;;;;;22.17;41.66;101850.44;21083455;28;20073;-63
2023/01/02 20:55:27;;;;;;;7.63;5.03;;;;;;;22.16;41.95;101857.13;21057798;28;20043;-62
2023/01/02 21:05:28;;;;;;;8.75;5.22;;;;;;;21.92;42.10;101836.28;21067349;28;20048;-63
2023/01/02 21:15:44;;;;;;;9.13;4.53;;;;;;;22.12;41.69;101863.50;21063340;28;20040;-62
2023/01/02 21:25:45;;;;;;;8.70;5.20;;;;;;;22.12;41.79;101872.69;21075646;28;20044;-63
2023/01/02 21:35:48;;;;;;;6.57;4.70;;;;;;;22.06;41.95;101857.84;21075500;28;20078;-62
2023/01/02 21:45:50;;;;;;;6.10;4.53;;;;;;;22.05;41.77;101863.72;21071296;28;20101;-62
2023/01/02 21:55:51;;;;;;;6.30;4.20;;;;;;;22.05;42.06;101875.69;21074864;28;20048;-62
2023/01/02 22:05:55;;;;;;;8.23;4.28;;;;;;;22.07;41.99;101903.28;21076344;28;20040;-62
2023/01/02 22:15:57;;;;;;;10.73;4.63;;;;;;;22.09;42.03;101906.66;21076343;28;20039;-62
2023/01/02 22:25:58;;;;;;;11.52;4.25;;;;;;;21.94;42.05;101878.66;21076984;28;20117;-63
2023/01/02 22:35:59;;;;;;;9.00;4.35;;;;;;;22.02;42.11;101897.66;21070485;28;20047;-61
2023/01/02 22:46:05;;;;;;;7.95;4.07;;;;;;;21.98;41.85;101896.53;21073573;28;20044;-61
2023/01/02 22:56:18;;;;;;;7.40;4.53;;;;;;;21.98;41.53;101896.53;21073766;28;20040;-61
2023/01/02 23:06:23;;;;;;;9.43;4.20;;;;;;;22.00;41.57;101899.91;21072297;28;20109;-63
2023/01/02 23:26:48;;;;;;;8.07;4.60;;;;;;;21.98;41.97;101924.38;21088590;28;20040;-62
2023/01/02 23:36:51;;;;;;;7.70;3.80;;;;;;;21.98;41.87;101943.91;21089582;28;20047;-62
2023/01/02 23:46:53;;;;;;;8.77;4.30;;;;;;;21.86;41.56;101927.38;21088708;28;20027;-62
2023/01/02 23:56:55;;;;;;;7.35;3.90;;;;;;;21.96;41.70;101949.75;21087872;28;20040;-63
